Time;durP1;ratioP1;P1;durP2;ratioP2;P2;SDS_P1;SDS_P2;PMS_P1;PMS_P2;Temp;Humidity;BMP_temperature;BMP_pressure;BME280_temperature;BME280_humidity;BME280_pressure;Samples;Min_cycle;Max_cycle;Signal;HPM_P1;HPM_P2
2022/10/18 00:00:37;;;;;;;40.63;27.88;;;;;;;;;;5043250;28;20811;-83
2022/10/18 00:03:03;;;;;;;41.05;28.92;;;;;;;;;;5045166;28;20929;-82
2022/10/18 00:05:29;;;;;;;47.40;31.13;;;;;;;;;;5043157;28;20436;-82
2022/10/18 00:07:56;;;;;;;45.92;30.02;;;;;;;;;;5045463;28;20435;-82
2022/10/18 00:10:23;;;;;;;42.63;30.23;;;;;;;;;;5043775;28;20418;-82
2022/10/18 00:12:51;;;;;;;39.53;27.40;;;;;;;;;;5042858;28;20508;-82
2022/10/18 00:15:18;;;;;;;41.55;28.80;;;;;;;;;;5042508;28;20422;-82
2022/10/18 00:17:44;;;;;;;46.78;30.52;;;;;;;;;;5042710;28;20435;-82
2022/10/18 00:20:11;;;;;;;49.83;32.40;;;;;;;;;;5041498;28;20454;-82
2022/10/18 00:22:39;;;;;;;45.55;30.77;;;;;;;;;;5042639;28;20437;-82
2022/10/18 00:25:06;;;;;;;42.30;30.25;;;;;;;;;;5042455;28;20416;-82
2022/10/18 00:27:32;;;;;;;43.08;29.52;;;;;;;;;;5045191;28;20413;-82
2022/10/18 00:30:00;;;;;;;42.05;29.55;;;;;;;;;;5042139;28;20418;-82
2022/10/18 00:32:27;;;;;;;46.72;31.95;;;;;;;;;;5043488;28;20425;-82
2022/10/18 00:34:54;;;;;;;46.10;32.53;;;;;;;;;;5044362;28;20946;-83
2022/10/18 00:37:20;;;;;;;54.85;34.05;;;;;;;;;;5042584;28;20825;-82
2022/10/18 00:39:47;;;;;;;44.42;30.42;;;;;;;;;;5044244;28;20423;-82
2022/10/18 00:42:15;;;;;;;49.85;33.17;;;;;;;;;;5043913;28;20919;-82
2022/10/18 00:45:15;;;;;;;40.38;28.38;;;;;;;;;;5044440;28;20424;-82
2022/10/18 00:47:43;;;;;;;42.55;28.92;;;;;;;;;;4963668;28;20425;-82
2022/10/18 00:50:10;;;;;;;42.80;30.45;;;;;;;;;;4962306;28;20973;-82
2022/10/18 00:52:38;;;;;;;46.03;31.60;;;;;;;;;;4999052;28;20753;-82
2022/10/18 00:55:05;;;;;;;46.38;30.55;;;;;;;;;;5030887;28;20494;-82
2022/10/18 00:57:33;;;;;;;45.78;30.75;;;;;;;;;;5043967;28;20425;-82
2022/10/18 01:00:00;;;;;;;45.58;31.33;;;;;;;;;;5052358;28;20772;-82
2022/10/18 01:02:26;;;;;;;42.55;29.88;;;;;;;;;;5063064;28;20424;-82
2022/10/18 01:04:55;;;;;;;49.80;32.13;;;;;;;;;;5054308;28;20405;-82
2022/10/18 01:07:30;;;;;;;47.97;31.13;;;;;;;;;;5037350;28;20892;-82
2022/10/18 01:09:59;;;;;;;46.80;31.83;;;;;;;;;;5043592;28;20787;-82
2022/10/18 01:12:31;;;;;;;54.83;33.13;;;;;;;;;;5040281;28;20414;-82
2022/10/18 01:15:00;;;;;;;50.05;31.63;;;;;;;;;;5042135;28;20437;-82
2022/10/18 01:17:31;;;;;;;41.17;29.10;;;;;;;;;;5041004;28;20417;-82
2022/10/18 01:20:12;;;;;;;42.58;30.88;;;;;;;;;;5044710;28;21335;-82
2022/10/18 01:22:44;;;;;;;42.40;30.70;;;;;;;;;;5040380;28;20443;-82
2022/10/18 01:25:16;;;;;;;49.25;31.00;;;;;;;;;;5039998;28;20447;-82
2022/10/18 01:27:48;;;;;;;50.42;33.58;;;;;;;;;;5039117;28;20446;-83
2022/10/18 01:30:36;;;;;;;44.47;30.95;;;;;;;;;;5030904;28;20469;-82
2022/10/18 01:33:07;;;;;;;52.37;33.70;;;;;;;;;;5043468;28;20467;-82
2022/10/18 01:35:37;;;;;;;50.30;32.28;;;;;;;;;;5056182;28;20419;-82
2022/10/18 01:38:06;;;;;;;51.75;32.70;;;;;;;;;;5063864;28;20411;-82
2022/10/18 01:40:33;;;;;;;45.33;30.35;;;;;;;;;;5046400;28;20415;-82
2022/10/18 01:43:00;;;;;;;52.30;33.22;;;;;;;;;;5042506;28;20431;-81
2022/10/18 01:45:27;;;;;;;46.53;32.88;;;;;;;;;;5040519;28;20915;-81
2022/10/18 01:47:54;;;;;;;48.35;33.20;;;;;;;;;;5042365;28;20425;-82
2022/10/18 01:50:29;;;;;;;52.00;34.65;;;;;;;;;;5046181;28;20795;-81
2022/10/18 01:52:56;;;;;;;43.90;30.23;;;;;;;;;;5041110;28;20474;-82
2022/10/18 01:55:25;;;;;;;42.78;28.83;;;;;;;;;;5039924;28;20409;-82
2022/10/18 01:57:58;;;;;;;47.70;32.05;;;;;;;;;;5043586;28;20428;-82
2022/10/18 02:00:28;;;;;;;52.83;32.83;;;;;;;;;;5040079;28;20418;-82
2022/10/18 02:02:57;;;;;;;52.05;33.38;;;;;;;;;;5041738;28;20427;-84
2022/10/18 02:05:28;;;;;;;53.80;33.80;;;;;;;;;;5041803;28;20441;-82
2022/10/18 02:07:58;;;;;;;57.70;34.55;;;;;;;;;;5024634;28;20504;-82
2022/10/18 02:10:28;;;;;;;67.07;38.20;;;;;;;;;;5044735;28;20429;-82
2022/10/18 02:12:55;;;;;;;57.72;35.53;;;;;;;;;;5046790;28;20432;-82
2022/10/18 02:15:23;;;;;;;51.30;34.60;;;;;;;;;;5041896;28;20431;-82
2022/10/18 02:17:50;;;;;;;53.65;34.58;;;;;;;;;;5044760;28;20947;-82
2022/10/18 02:20:19;;;;;;;57.72;35.15;;;;;;;;;;5044779;28;20430;-82
2022/10/18 02:22:47;;;;;;;54.83;35.63;;;;;;;;;;5046247;28;20953;-82
2022/10/18 02:25:20;;;;;;;64.30;38.05;;;;;;;;;;5044541;28;20431;-83
2022/10/18 02:27:47;;;;;;;68.43;38.97;;;;;;;;;;5044592;28;20943;-81
2022/10/18 02:30:14;;;;;;;71.35;38.92;;;;;;;;;;5033664;28;20438;-83
2022/10/18 02:32:41;;;;;;;56.47;35.10;;;;;;;;;;5042452;28;20462;-82
2022/10/18 02:35:10;;;;;;;54.78;36.60;;;;;;;;;;5055580;28;20427;-82
2022/10/18 02:37:39;;;;;;;51.45;35.03;;;;;;;;;;5063793;28;20423;-83
2022/10/18 02:40:07;;;;;;;44.17;31.88;;;;;;;;;;5056083;28;20411;-82
2022/10/18 02:42:36;;;;;;;49.80;32.63;;;;;;;;;;5044239;28;20429;-82
2022/10/18 02:45:04;;;;;;;50.42;32.13;;;;;;;;;;5048546;28;20421;-82
2022/10/18 02:47:31;;;;;;;51.22;32.85;;;;;;;;;;5026757;28;20452;-82
2022/10/18 02:49:57;;;;;;;56.22;35.03;;;;;;;;;;5045281;28;20794;-82
2022/10/18 02:52:24;;;;;;;54.40;36.38;;;;;;;;;;5026983;28;20421;-82
2022/10/18 02:54:50;;;;;;;64.50;36.28;;;;;;;;;;5044411;28;20802;-84
2022/10/18 02:57:17;;;;;;;59.28;35.20;;;;;;;;;;5046666;28;20430;-82
2022/10/18 02:59:44;;;;;;;55.00;34.38;;;;;;;;;;5043839;28;20434;-82
2022/10/18 03:02:11;;;;;;;61.65;36.88;;;;;;;;;;5047749;28;20424;-82
2022/10/18 03:04:37;;;;;;;48.88;32.97;;;;;;;;;;5044351;28;20839;-82
2022/10/18 03:07:04;;;;;;;61.60;38.70;;;;;;;;;;5043279;28;20444;-82
2022/10/18 03:09:30;;;;;;;55.08;35.65;;;;;;;;;;5045354;28;20413;-84
2022/10/18 03:11:56;;;;;;;51.38;33.90;;;;;;;;;;5042097;28;20433;-83
2022/10/18 03:14:23;;;;;;;57.28;36.28;;;;;;;;;;5040636;28;20415;-84
2022/10/18 03:16:51;;;;;;;55.60;35.63;;;;;;;;;;5043286;28;20411;-82
2022/10/18 03:19:17;;;;;;;54.08;35.55;;;;;;;;;;5042636;28;20520;-83
2022/10/18 03:21:43;;;;;;;57.17;36.50;;;;;;;;;;5042057;28;20423;-82
2022/10/18 03:24:10;;;;;;;68.80;40.22;;;;;;;;;;5043972;28;20382;-83
2022/10/18 03:26:36;;;;;;;67.13;41.65;;;;;;;;;;5045410;28;20417;-83
2022/10/18 03:29:03;;;;;;;68.20;40.80;;;;;;;;;;5026408;28;20423;-83
2022/10/18 03:31:29;;;;;;;69.30;39.13;;;;;;;;;;5045368;28;20413;-83
2022/10/18 03:33:57;;;;;;;67.70;39.03;;;;;;;;;;5046047;28;20429;-83
2022/10/18 03:36:23;;;;;;;63.17;36.90;;;;;;;;;;5040467;28;20413;-84
2022/10/18 03:38:50;;;;;;;65.65;37.47;;;;;;;;;;5043200;28;20528;-84
2022/10/18 03:41:16;;;;;;;66.13;39.78;;;;;;;;;;5041301;28;20427;-84
2022/10/18 03:43:42;;;;;;;70.20;40.42;;;;;;;;;;5042188;28;20422;-84
2022/10/18 03:46:09;;;;;;;76.00;40.50;;;;;;;;;;5042847;28;20428;-83
2022/10/18 03:48:35;;;;;;;75.50;41.78;;;;;;;;;;5042017;28;20423;-84
2022/10/18 03:51:03;;;;;;;76.15;42.28;;;;;;;;;;5039846;28;20430;-84
2022/10/18 03:53:30;;;;;;;79.18;43.53;;;;;;;;;;5041598;28;20413;-84
2022/10/18 03:55:56;;;;;;;79.60;43.93;;;;;;;;;;5043104;28;20429;-84
2022/10/18 03:58:23;;;;;;;87.43;46.00;;;;;;;;;;5042792;28;20827;-83
2022/10/18 04:00:49;;;;;;;81.18;44.13;;;;;;;;;;5043174;28;20421;-82
2022/10/18 04:03:16;;;;;;;89.50;44.22;;;;;;;;;;5043330;28;20458;-82
2022/10/18 04:05:42;;;;;;;82.32;42.33;;;;;;;;;;5042707;28;20925;-83
2022/10/18 04:08:10;;;;;;;74.35;40.63;;;;;;;;;;5042635;28;20437;-82
2022/10/18 04:10:37;;;;;;;83.78;40.00;;;;;;;;;;5045108;28;20422;-82
2022/10/18 04:13:03;;;;;;;73.45;40.20;;;;;;;;;;5044778;28;20423;-81
2022/10/18 04:15:32;;;;;;;71.60;37.70;;;;;;;;;;5041708;28;20434;-82
2022/10/18 04:17:58;;;;;;;53.75;31.73;;;;;;;;;;5041574;28;20823;-83
2022/10/18 04:20:25;;;;;;;58.87;34.07;;;;;;;;;;5039935;28;20434;-81
2022/10/18 04:22:53;;;;;;;80.37;36.83;;;;;;;;;;5042359;28;20512;-84
2022/10/18 04:25:21;;;;;;;60.20;35.53;;;;;;;;;;5042100;28;20416;-84
2022/10/18 04:27:48;;;;;;;62.53;32.78;;;;;;;;;;5023424;28;20413;-82
2022/10/18 04:30:14;;;;;;;55.63;32.92;;;;;;;;;;5029326;28;20453;-84
2022/10/18 04:32:41;;;;;;;51.88;31.13;;;;;;;;;;5041678;28;20453;-82
2022/10/18 04:35:07;;;;;;;54.38;30.10;;;;;;;;;;5051961;28;20419;-82
2022/10/18 04:37:34;;;;;;;48.75;28.63;;;;;;;;;;5064162;28;20429;-81
2022/10/18 04:40:01;;;;;;;45.30;29.02;;;;;;;;;;5053590;28;20981;-84
2022/10/18 04:42:28;;;;;;;50.92;30.55;;;;;;;;;;5041785;28;20436;-82
2022/10/18 04:44:55;;;;;;;50.03;30.52;;;;;;;;;;5039772;28;20433;-84
2022/10/18 04:47:21;;;;;;;51.50;30.92;;;;;;;;;;5026706;28;20437;-84
2022/10/18 04:49:48;;;;;;;48.38;30.38;;;;;;;;;;5026362;28;20423;-82
2022/10/18 04:52:14;;;;;;;46.30;28.85;;;;;;;;;;5045223;28;20451;-82
2022/10/18 04:54:41;;;;;;;54.88;28.90;;;;;;;;;;5040942;28;20471;-82
2022/10/18 04:57:07;;;;;;;46.13;28.40;;;;;;;;;;5047364;28;20409;-84
2022/10/18 04:59:36;;;;;;;44.38;27.83;;;;;;;;;;5043306;28;20414;-82
2022/10/18 05:02:02;;;;;;;44.13;29.83;;;;;;;;;;5043706;28;20430;-82
2022/10/18 05:04:28;;;;;;;44.28;28.30;;;;;;;;;;5030305;28;20422;-82
2022/10/18 05:06:55;;;;;;;41.50;27.67;;;;;;;;;;5044217;28;20413;-82
2022/10/18 05:09:23;;;;;;;41.97;27.95;;;;;;;;;;5047068;28;20916;-82
2022/10/18 05:11:49;;;;;;;44.60;27.67;;;;;;;;;;5046941;28;20508;-82
2022/10/18 05:14:17;;;;;;;41.50;24.92;;;;;;;;;;5063273;28;20421;-83
2022/10/18 05:16:45;;;;;;;43.97;28.85;;;;;;;;;;5045943;28;20421;-82
2022/10/18 05:19:11;;;;;;;42.63;25.05;;;;;;;;;;5058731;28;20404;-82
2022/10/18 05:21:38;;;;;;;37.30;26.58;;;;;;;;;;5045997;28;20435;-82
2022/10/18 05:24:04;;;;;;;39.07;25.97;;;;;;;;;;5042853;28;20425;-82
2022/10/18 05:26:31;;;;;;;39.20;27.35;;;;;;;;;;5042086;28;20409;-83
2022/10/18 05:28:59;;;;;;;37.15;24.33;;;;;;;;;;5042615;28;20429;-82
2022/10/18 05:31:25;;;;;;;76.95;30.80;;;;;;;;;;5042019;28;20417;-82
2022/10/18 05:33:53;;;;;;;41.17;26.55;;;;;;;;;;5043136;28;20413;-83
2022/10/18 05:36:19;;;;;;;39.20;26.43;;;;;;;;;;5040782;28;20420;-82
2022/10/18 05:38:47;;;;;;;36.20;25.77;;;;;;;;;;5040299;28;20430;-82
2022/10/18 05:41:13;;;;;;;36.83;25.87;;;;;;;;;;5043784;28;20415;-81
2022/10/18 05:43:40;;;;;;;34.60;24.80;;;;;;;;;;5041787;28;20425;-81
2022/10/18 05:46:07;;;;;;;35.75;26.70;;;;;;;;;;5046670;28;20423;-84
2022/10/18 05:48:33;;;;;;;39.92;26.42;;;;;;;;;;5043842;28;20442;-84
2022/10/18 05:51:01;;;;;;;41.17;25.98;;;;;;;;;;5042131;28;20793;-84
2022/10/18 05:53:28;;;;;;;40.92;26.73;;;;;;;;;;5048403;28;20429;-82
2022/10/18 05:55:56;;;;;;;38.15;25.52;;;;;;;;;;5045081;28;20421;-82
2022/10/18 05:58:22;;;;;;;39.30;26.00;;;;;;;;;;5045720;28;20428;-82
2022/10/18 06:00:48;;;;;;;40.95;25.27;;;;;;;;;;5045561;28;20433;-84
2022/10/18 06:03:15;;;;;;;35.10;24.42;;;;;;;;;;5044413;28;20946;-81
2022/10/18 06:05:41;;;;;;;37.53;25.30;;;;;;;;;;5044024;28;20421;-84
2022/10/18 06:08:09;;;;;;;38.78;24.70;;;;;;;;;;5042783;28;20439;-83
2022/10/18 06:10:38;;;;;;;38.15;24.65;;;;;;;;;;5042032;28;20416;-83
2022/10/18 06:13:05;;;;;;;38.65;25.00;;;;;;;;;;5045560;28;20429;-84
2022/10/18 06:15:31;;;;;;;40.17;24.55;;;;;;;;;;5045658;28;20421;-83
2022/10/18 06:17:58;;;;;;;34.42;23.85;;;;;;;;;;5046662;28;20433;-83
2022/10/18 06:20:24;;;;;;;37.65;24.05;;;;;;;;;;5042764;28;20415;-83
2022/10/18 06:22:51;;;;;;;38.03;23.52;;;;;;;;;;5042455;28;20418;-83
2022/10/18 06:25:21;;;;;;;35.77;24.60;;;;;;;;;;5048450;28;20415;-83
2022/10/18 06:27:48;;;;;;;35.95;24.60;;;;;;;;;;5045391;28;20811;-83
2022/10/18 06:30:14;;;;;;;37.50;24.48;;;;;;;;;;5049339;28;20420;-83
2022/10/18 06:32:40;;;;;;;39.38;25.08;;;;;;;;;;5048215;28;20429;-82
2022/10/18 06:35:07;;;;;;;44.05;26.30;;;;;;;;;;5045263;28;20429;-83
2022/10/18 06:37:35;;;;;;;42.45;25.48;;;;;;;;;;5045114;28;20437;-84
2022/10/18 06:40:02;;;;;;;38.17;24.48;;;;;;;;;;5046396;28;20502;-84
2022/10/18 06:42:30;;;;;;;37.05;22.23;;;;;;;;;;5025601;28;20433;-83
2022/10/18 06:44:56;;;;;;;36.20;23.10;;;;;;;;;;5044453;28;20512;-84
2022/10/18 06:47:23;;;;;;;37.22;23.67;;;;;;;;;;5027085;28;20946;-84
2022/10/18 06:49:49;;;;;;;38.85;23.70;;;;;;;;;;5043969;28;20424;-84
2022/10/18 06:52:16;;;;;;;45.80;25.92;;;;;;;;;;5042711;28;20519;-84
2022/10/18 06:54:43;;;;;;;44.05;26.38;;;;;;;;;;5045082;28;20422;-84
2022/10/18 06:57:10;;;;;;;45.67;26.10;;;;;;;;;;5025493;28;20440;-84
2022/10/18 06:59:39;;;;;;;48.65;26.60;;;;;;;;;;5025605;28;20489;-84
2022/10/18 07:02:06;;;;;;;49.38;26.35;;;;;;;;;;5024994;28;20421;-82
2022/10/18 07:04:33;;;;;;;50.97;28.70;;;;;;;;;;5045030;28;20438;-82
2022/10/18 07:06:59;;;;;;;46.13;25.83;;;;;;;;;;5042726;28;20429;-82
2022/10/18 07:09:26;;;;;;;59.60;29.17;;;;;;;;;;5044996;28;20938;-81
2022/10/18 07:11:52;;;;;;;54.60;30.52;;;;;;;;;;5043555;28;20433;-83
2022/10/18 07:14:19;;;;;;;63.05;31.38;;;;;;;;;;5043067;28;20435;-82
2022/10/18 07:16:47;;;;;;;63.30;32.08;;;;;;;;;;5044815;28;20783;-82
2022/10/18 07:19:13;;;;;;;65.40;33.00;;;;;;;;;;5047039;28;20420;-82
2022/10/18 07:21:40;;;;;;;68.75;33.40;;;;;;;;;;5042598;28;20425;-82
2022/10/18 07:24:06;;;;;;;62.42;33.40;;;;;;;;;;5044711;28;20501;-82
2022/10/18 07:26:34;;;;;;;70.22;32.42;;;;;;;;;;5043199;28;20432;-85
2022/10/18 07:29:01;;;;;;;61.58;31.98;;;;;;;;;;5066626;28;20492;-82
2022/10/18 07:31:28;;;;;;;60.40;32.20;;;;;;;;;;5063741;28;20420;-82
2022/10/18 07:33:56;;;;;;;55.70;31.10;;;;;;;;;;5063679;28;20418;-82
2022/10/18 07:36:23;;;;;;;58.93;30.80;;;;;;;;;;5064492;28;20420;-82
2022/10/18 07:38:50;;;;;;;49.57;28.50;;;;;;;;;;5060721;28;20508;-82
2022/10/18 07:41:17;;;;;;;46.40;26.80;;;;;;;;;;5044918;28;20420;-82
2022/10/18 07:43:44;;;;;;;40.83;24.63;;;;;;;;;;5062514;28;20420;-82
2022/10/18 07:46:12;;;;;;;36.28;20.95;;;;;;;;;;5062498;28;20424;-83
2022/10/18 07:48:38;;;;;;;36.05;22.48;;;;;;;;;;5063408;28;20419;-82
2022/10/18 07:51:06;;;;;;;37.85;21.85;;;;;;;;;;5044473;28;20785;-84
2022/10/18 07:53:33;;;;;;;36.70;22.45;;;;;;;;;;5062433;28;20419;-82
2022/10/18 07:56:00;;;;;;;34.08;20.35;;;;;;;;;;5065720;28;20415;-82
2022/10/18 07:58:27;;;;;;;37.85;21.42;;;;;;;;;;5061053;28;20429;-84
2022/10/18 08:00:53;;;;;;;31.67;19.80;;;;;;;;;;5062707;28;20436;-82
2022/10/18 08:03:20;;;;;;;33.17;20.05;;;;;;;;;;5043719;28;20417;-82
2022/10/18 08:05:51;;;;;;;33.30;20.10;;;;;;;;;;5062171;28;20430;-82
2022/10/18 08:08:19;;;;;;;47.20;24.33;;;;;;;;;;5061694;28;20494;-83
2022/10/18 08:10:45;;;;;;;51.80;27.48;;;;;;;;;;5062321;28;20425;-82
2022/10/18 08:13:12;;;;;;;54.33;27.90;;;;;;;;;;5064382;28;20431;-83
2022/10/18 08:15:38;;;;;;;49.47;26.38;;;;;;;;;;5062863;28;20436;-82
2022/10/18 08:18:04;;;;;;;41.10;23.90;;;;;;;;;;5064834;28;20411;-83
2022/10/18 08:20:32;;;;;;;40.95;24.42;;;;;;;;;;5060995;28;20426;-82
2022/10/18 08:22:59;;;;;;;40.70;22.80;;;;;;;;;;5048723;28;20582;-82
2022/10/18 08:25:27;;;;;;;36.55;23.10;;;;;;;;;;5063873;28;20437;-82
2022/10/18 08:27:53;;;;;;;44.33;23.20;;;;;;;;;;5062327;28;20504;-82
2022/10/18 08:30:19;;;;;;;49.75;25.27;;;;;;;;;;5063300;28;20428;-82
2022/10/18 08:32:46;;;;;;;52.80;25.85;;;;;;;;;;5063549;28;20421;-83
2022/10/18 08:35:13;;;;;;;62.13;28.58;;;;;;;;;;5058548;28;20420;-82
2022/10/18 08:37:40;;;;;;;43.63;23.60;;;;;;;;;;5059722;28;20913;-82
2022/10/18 08:40:07;;;;;;;59.40;29.85;;;;;;;;;;5067485;28;20794;-82
2022/10/18 08:42:43;;;;;;;40.42;24.85;;;;;;;;;;5044264;28;20944;-82
2022/10/18 08:45:11;;;;;;;39.80;22.63;;;;;;;;;;5064935;28;20493;-82
2022/10/18 08:47:40;;;;;;;41.15;23.83;;;;;;;;;;5044877;28;20887;-82
2022/10/18 08:50:07;;;;;;;35.00;22.23;;;;;;;;;;5062641;28;20949;-82
2022/10/18 08:52:37;;;;;;;38.95;23.52;;;;;;;;;;5062188;28;20417;-82
2022/10/18 08:55:08;;;;;;;38.13;23.88;;;;;;;;;;5065023;28;20420;-82
2022/10/18 08:57:35;;;;;;;33.47;21.42;;;;;;;;;;5061341;28;21188;-82
2022/10/18 09:00:06;;;;;;;34.60;22.23;;;;;;;;;;5066905;28;20712;-82
2022/10/18 09:02:41;;;;;;;33.63;21.45;;;;;;;;;;5063049;28;20420;-82
2022/10/18 09:05:12;;;;;;;34.42;21.42;;;;;;;;;;5044999;28;20461;-81
2022/10/18 09:08:08;;;;;;;35.33;22.35;;;;;;;;;;5060552;28;20422;-82
2022/10/18 09:10:41;;;;;;;44.38;23.98;;;;;;;;;;5040689;28;20445;-81
2022/10/18 09:13:15;;;;;;;38.00;22.38;;;;;;;;;;5061321;28;20432;-82
2022/10/18 09:15:44;;;;;;;36.15;22.33;;;;;;;;;;5046304;28;20405;-82
2022/10/18 09:18:16;;;;;;;34.45;22.85;;;;;;;;;;5062650;28;20414;-82
2022/10/18 09:20:47;;;;;;;39.58;24.75;;;;;;;;;;5047842;28;20440;-82
2022/10/18 09:23:18;;;;;;;33.75;21.88;;;;;;;;;;5061747;28;20413;-82
2022/10/18 09:25:45;;;;;;;34.22;20.88;;;;;;;;;;5063262;28;20973;-82
2022/10/18 09:28:16;;;;;;;31.20;19.75;;;;;;;;;;5061605;28;20955;-82
2022/10/18 09:30:48;;;;;;;29.02;20.98;;;;;;;;;;5062158;28;20785;-82
2022/10/18 09:33:25;;;;;;;33.55;20.38;;;;;;;;;;5064172;28;20486;-81
2022/10/18 09:35:54;;;;;;;30.42;18.17;;;;;;;;;;5062017;28;20428;-81
2022/10/18 09:38:23;;;;;;;25.48;18.08;;;;;;;;;;5060727;28;20422;-82
2022/10/18 09:40:52;;;;;;;28.93;17.93;;;;;;;;;;5061676;28;20728;-82
2022/10/18 09:43:21;;;;;;;28.25;18.77;;;;;;;;;;5063165;28;20428;-81
2022/10/18 09:45:50;;;;;;;24.83;17.33;;;;;;;;;;5062130;28;20429;-81
2022/10/18 09:48:19;;;;;;;27.02;18.20;;;;;;;;;;5058730;28;20420;-82
2022/10/18 09:50:48;;;;;;;24.45;18.70;;;;;;;;;;5061449;28;20426;-82
2022/10/18 09:53:17;;;;;;;22.88;15.82;;;;;;;;;;5063940;28;20419;-82
2022/10/18 09:55:51;;;;;;;24.27;16.98;;;;;;;;;;5046677;28;20445;-82
2022/10/18 09:58:19;;;;;;;34.13;21.60;;;;;;;;;;5061298;28;20426;-81
2022/10/18 10:00:48;;;;;;;31.20;20.67;;;;;;;;;;5046119;28;20456;-83
2022/10/18 10:03:16;;;;;;;23.98;16.70;;;;;;;;;;5063674;28;20419;-82
2022/10/18 10:05:42;;;;;;;31.03;20.07;;;;;;;;;;5066916;28;20419;-81
2022/10/18 10:08:09;;;;;;;32.25;21.27;;;;;;;;;;5061546;28;20432;-81
2022/10/18 10:10:38;;;;;;;30.60;23.00;;;;;;;;;;5044528;28;20436;-81
2022/10/18 10:13:06;;;;;;;30.80;19.55;;;;;;;;;;5063123;28;20539;-81
2022/10/18 10:15:35;;;;;;;32.17;21.67;;;;;;;;;;5061834;28;20426;-81
2022/10/18 10:18:02;;;;;;;27.73;17.90;;;;;;;;;;5060809;28;20421;-81
2022/10/18 10:20:33;;;;;;;26.10;17.33;;;;;;;;;;5061353;28;20414;-82
2022/10/18 10:23:06;;;;;;;27.83;17.40;;;;;;;;;;5044490;28;20450;-81
2022/10/18 10:25:34;;;;;;;26.98;17.38;;;;;;;;;;5063761;28;20429;-81
2022/10/18 10:28:02;;;;;;;28.30;17.27;;;;;;;;;;5060208;28;20426;-81
2022/10/18 10:30:30;;;;;;;22.35;15.27;;;;;;;;;;5064403;28;20928;-83
2022/10/18 10:32:56;;;;;;;28.70;16.60;;;;;;;;;;5066606;28;20419;-82
2022/10/18 10:35:24;;;;;;;27.33;15.77;;;;;;;;;;5066218;28;20423;-81
2022/10/18 10:37:54;;;;;;;24.95;15.27;;;;;;;;;;5064989;28;20434;-81
2022/10/18 10:40:22;;;;;;;21.03;14.47;;;;;;;;;;5068497;28;20416;-81
2022/10/18 10:42:52;;;;;;;23.33;14.95;;;;;;;;;;5065190;28;21136;-81
2022/10/18 10:45:20;;;;;;;21.13;13.90;;;;;;;;;;5065786;28;20433;-81
2022/10/18 10:47:47;;;;;;;23.20;13.50;;;;;;;;;;5067112;28;20901;-81
2022/10/18 10:50:22;;;;;;;20.33;13.87;;;;;;;;;;5064294;28;20469;-81
2022/10/18 10:52:48;;;;;;;24.30;14.43;;;;;;;;;;5064725;28;20413;-80
2022/10/18 10:55:18;;;;;;;16.80;12.27;;;;;;;;;;5067603;28;20775;-81
2022/10/18 10:57:46;;;;;;;21.88;11.20;;;;;;;;;;5063170;28;20423;-81
2022/10/18 11:00:27;;;;;;;20.50;11.00;;;;;;;;;;5069311;28;20409;-81
2022/10/18 11:03:04;;;;;;;19.02;10.88;;;;;;;;;;5065583;28;20556;-81
2022/10/18 11:05:31;;;;;;;20.52;12.52;;;;;;;;;;5066421;28;20437;-81
2022/10/18 11:07:59;;;;;;;19.85;10.93;;;;;;;;;;5047418;28;20406;-81
2022/10/18 11:10:28;;;;;;;17.15;10.98;;;;;;;;;;5065889;28;20416;-81
2022/10/18 11:13:01;;;;;;;13.05;8.25;;;;;;;;;;5064837;28;20442;-81
2022/10/18 11:15:31;;;;;;;14.43;8.70;;;;;;;;;;5065060;28;20409;-81
2022/10/18 11:18:02;;;;;;;14.48;8.57;;;;;;;;;;5067453;28;20413;-82
2022/10/18 11:20:31;;;;;;;14.15;8.20;;;;;;;;;;5063455;28;20529;-82
2022/10/18 11:23:00;;;;;;;14.75;8.88;;;;;;;;;;5065333;28;20433;-82
2022/10/18 11:25:34;;;;;;;18.80;9.25;;;;;;;;;;5062979;28;20445;-81
2022/10/18 11:28:03;;;;;;;16.70;10.25;;;;;;;;;;5064984;28;20425;-81
2022/10/18 11:30:41;;;;;;;16.25;9.88;;;;;;;;;;5065583;28;20420;-82
2022/10/18 11:33:19;;;;;;;14.47;8.53;;;;;;;;;;5063966;28;20493;-82
2022/10/18 11:35:48;;;;;;;15.27;8.43;;;;;;;;;;5065733;28;20438;-82
2022/10/18 11:38:25;;;;;;;13.82;7.65;;;;;;;;;;5066836;28;20408;-82
2022/10/18 11:41:00;;;;;;;15.65;7.10;;;;;;;;;;5048510;28;20419;-82
2022/10/18 11:43:33;;;;;;;13.32;6.07;;;;;;;;;;5064177;28;20429;-82
2022/10/18 11:46:03;;;;;;;11.88;6.20;;;;;;;;;;5064290;28;20420;-82
2022/10/18 11:48:45;;;;;;;11.35;6.65;;;;;;;;;;5060187;28;20429;-82
2022/10/18 11:51:15;;;;;;;11.77;6.20;;;;;;;;;;5064755;28;20508;-82
2022/10/18 11:53:45;;;;;;;13.43;5.38;;;;;;;;;;5063119;28;20428;-82
2022/10/18 11:56:15;;;;;;;12.45;5.60;;;;;;;;;;5045682;28;20471;-82
2022/10/18 11:59:00;;;;;;;10.90;3.70;;;;;;;;;;5062008;28;20432;-82
2022/10/18 12:01:29;;;;;;;10.40;3.60;;;;;;;;;;5061353;28;20423;-82
2022/10/18 12:04:00;;;;;;;10.57;4.22;;;;;;;;;;5061707;28;20918;-82
2022/10/18 12:06:30;;;;;;;13.40;3.83;;;;;;;;;;5042900;28;20797;-82
2022/10/18 12:08:58;;;;;;;12.30;4.40;;;;;;;;;;5063104;28;20425;-81
2022/10/18 12:11:28;;;;;;;11.15;3.75;;;;;;;;;;5062631;28;20478;-82
2022/10/18 12:13:56;;;;;;;9.65;3.65;;;;;;;;;;5061242;28;20421;-82
2022/10/18 12:16:23;;;;;;;11.57;4.10;;;;;;;;;;5062054;28;20425;-82
2022/10/18 12:18:53;;;;;;;13.85;4.30;;;;;;;;;;5061276;28;20431;-82
2022/10/18 12:21:21;;;;;;;9.68;3.50;;;;;;;;;;5061152;28;20931;-82
2022/10/18 12:23:51;;;;;;;10.40;3.50;;;;;;;;;;5044943;28;20468;-82
2022/10/18 12:26:17;;;;;;;8.82;3.10;;;;;;;;;;5063198;28;20429;-81
2022/10/18 12:28:54;;;;;;;12.18;3.28;;;;;;;;;;5062702;28;20417;-82
2022/10/18 12:31:23;;;;;;;12.90;3.30;;;;;;;;;;5059344;28;20417;-82
2022/10/18 12:33:50;;;;;;;8.73;3.30;;;;;;;;;;5060690;28;20427;-82
2022/10/18 12:36:27;;;;;;;9.82;3.40;;;;;;;;;;5060849;28;20785;-82
2022/10/18 12:38:56;;;;;;;12.27;3.30;;;;;;;;;;5060378;28;20425;-82
2022/10/18 12:41:25;;;;;;;10.10;3.40;;;;;;;;;;5063441;28;20427;-82
2022/10/18 12:43:54;;;;;;;9.63;2.80;;;;;;;;;;5045175;28;20423;-82
2022/10/18 12:46:21;;;;;;;10.15;3.20;;;;;;;;;;5064803;28;20427;-82
2022/10/18 12:48:51;;;;;;;9.15;2.72;;;;;;;;;;5063210;28;20423;-82
2022/10/18 12:51:18;;;;;;;8.68;2.88;;;;;;;;;;5061828;28;20424;-82
2022/10/18 12:53:46;;;;;;;8.38;2.75;;;;;;;;;;5043603;28;20443;-81
2022/10/18 12:56:31;;;;;;;13.10;3.20;;;;;;;;;;5062552;28;20431;-83
2022/10/18 13:02:21;;;;;;;9.90;3.70;;;;;;;;;;5130601;27;20469;-80
2022/10/18 13:04:49;;;;;;;8.98;2.92;;;;;;;;;;5074685;28;20420;-82
2022/10/18 13:07:20;;;;;;;9.18;3.10;;;;;;;;;;5073752;28;20405;-81
2022/10/18 13:10:05;;;;;;;14.13;3.72;;;;;;;;;;5054131;28;20425;-82
2022/10/18 13:12:49;;;;;;;9.63;3.10;;;;;;;;;;5053948;28;20431;-82
2022/10/18 13:15:36;;;;;;;14.45;3.45;;;;;;;;;;5053991;28;20432;-82
2022/10/18 13:18:09;;;;;;;14.02;3.50;;;;;;;;;;5053755;28;20418;-82
2022/10/18 13:20:38;;;;;;;15.43;3.90;;;;;;;;;;5056029;28;20941;-82
2022/10/18 13:23:10;;;;;;;11.98;3.42;;;;;;;;;;5053548;28;20422;-82
2022/10/18 13:25:45;;;;;;;12.70;3.80;;;;;;;;;;5051995;28;20428;-82
2022/10/18 13:28:18;;;;;;;11.48;3.03;;;;;;;;;;5055001;28;20422;-82
2022/10/18 13:30:49;;;;;;;11.52;2.53;;;;;;;;;;5051692;28;20430;-82
2022/10/18 13:33:30;;;;;;;8.23;2.50;;;;;;;;;;5056125;28;20418;-81
2022/10/18 13:35:59;;;;;;;9.43;2.60;;;;;;;;;;5052835;28;20441;-82
2022/10/18 13:38:36;;;;;;;10.20;2.93;;;;;;;;;;5052779;28;20479;-82
2022/10/18 13:41:03;;;;;;;10.87;2.80;;;;;;;;;;5056408;28;20459;-81
2022/10/18 13:43:53;;;;;;;11.38;2.80;;;;;;;;;;5056345;28;20467;-81
2022/10/18 13:46:20;;;;;;;9.55;3.08;;;;;;;;;;5035304;28;20935;-81
2022/10/18 13:48:50;;;;;;;13.15;3.10;;;;;;;;;;5056252;28;20430;-81
2022/10/18 13:51:35;;;;;;;8.95;2.70;;;;;;;;;;5054056;28;20543;-81
2022/10/18 13:54:07;;;;;;;8.82;2.40;;;;;;;;;;5055401;28;20488;-81
2022/10/18 13:56:45;;;;;;;10.75;2.75;;;;;;;;;;5056424;28;20444;-81
2022/10/18 13:59:20;;;;;;;10.13;3.10;;;;;;;;;;5074191;28;20411;-81
2022/10/18 14:01:54;;;;;;;8.23;2.30;;;;;;;;;;5071624;28;20433;-83
2022/10/18 14:04:34;;;;;;;13.75;2.97;;;;;;;;;;5075447;28;20804;-83
2022/10/18 14:07:03;;;;;;;8.43;2.30;;;;;;;;;;5072239;28;20509;-83
2022/10/18 14:09:33;;;;;;;9.75;2.95;;;;;;;;;;5077896;28;20445;-83
2022/10/18 14:12:07;;;;;;;9.82;2.40;;;;;;;;;;5070011;28;20430;-83
2022/10/18 14:14:37;;;;;;;9.70;2.30;;;;;;;;;;5061399;28;20418;-83
2022/10/18 14:17:08;;;;;;;9.98;2.28;;;;;;;;;;5059900;28;20415;-82
2022/10/18 14:19:38;;;;;;;11.80;3.15;;;;;;;;;;5060645;28;20448;-83
2022/10/18 14:22:10;;;;;;;5.53;1.80;;;;;;;;;;5061905;28;20415;-83
2022/10/18 14:24:38;;;;;;;11.30;2.30;;;;;;;;;;5062682;28;20429;-83
2022/10/18 14:27:10;;;;;;;7.40;2.20;;;;;;;;;;5060419;28;20409;-82
2022/10/18 14:29:36;;;;;;;6.93;2.00;;;;;;;;;;5064017;28;20431;-83
2022/10/18 14:32:02;;;;;;;8.95;2.78;;;;;;;;;;5058831;28;20413;-83
2022/10/18 14:34:29;;;;;;;11.90;2.17;;;;;;;;;;5062662;28;20416;-83